This is the latest recevied weather packets stored in our database for station/object KK7PZE-13. If no packets are shown the sender has not sent any weather packets the latest 1 day(s).
| Time | Temp. | Humidity | Pressure | Rain* | Wind** | Luminosity | Snow |
|---|---|---|---|---|---|---|---|
| 1778086637 | 22.78° C | 26% | 1015.4 hPa | 0 mm | - | - | - |
| 1778086476 | 22.78° C | 26% | 1015.4 hPa | 0 mm | - | - | - |
| 1778082276 | 20° C | 30% | 1015.4 hPa | 0 mm | - | - | - |
| 1778081676 | 19.44° C | 31% | 1015.4 hPa | 0 mm | - | - | - |
| 1778079875 | 18.89° C | 32% | 1015.4 hPa | 0 mm | - | - | - |
| 1778075076 | 13.89° C | 43% | 1014.5 hPa | 0 mm | - | - | - |
| 1778073276 | 10.56° C | 49% | 1014.3 hPa | 0 mm | - | - | - |
| 1778072184 | 10° C | 51% | 1013.9 hPa | 0 mm | - | - | - |
| 1778069678 | 10.56° C | 51% | 1013.8 hPa | 0 mm | - | - | - |
| 1778067275 | 10.56° C | 50% | 1013.6 hPa | 0 mm | - | - | - |
| 1778066675 | 10.56° C | 49% | 1013.7 hPa | 0 mm | - | - | - |
| 1778066112 | 11.11° C | 49% | 1013.8 hPa | 0 mm | - | - | - |
| 1778066076 | 11.11° C | 49% | 1013.8 hPa | 0 mm | - | - | - |
| 1778065475 | 11.67° C | 48% | 1013.6 hPa | 0 mm | - | - | - |
| 1778064876 | 12.22° C | 46% | 1013.5 hPa | 0 mm | - | - | - |
| 1778064276 | 11.67° C | 48% | 1013.4 hPa | 0 mm | - | - | - |
| 1778063075 | 11.11° C | 48% | 1013.2 hPa | 0 mm | - | - | - |
| 1778061875 | 11.67° C | 48% | 1013.3 hPa | 0 mm | - | - | - |
| 1778061275 | 11.67° C | 47% | 1013.3 hPa | 0 mm | - | - | - |
| 1778060075 | 12.22° C | 46% | 1013.1 hPa | 0 mm | - | - | - |
| 1778059475 | 12.78° C | 45% | 1013.2 hPa | 0 mm | - | - | - |
| 1778058876 | 12.78° C | 45% | 1013.1 hPa | 0 mm | - | - | - |
| 1778058275 | 12.78° C | 45% | 1013.1 hPa | 0 mm | - | - | - |
| 1778057076 | 12.78° C | 44% | 1013.1 hPa | 0 mm | - | - | - |
| 1778055907 | 12.78° C | 44% | 1013 hPa | 0 mm | - | - | - |
* Rain latest hour (hover to see other rain measurements)
** Current wind speed in m/s (hover to see current wind gust speed)